Time;durP1;ratioP1;P1;durP2;ratioP2;P2;SDS_P1;SDS_P2;PMS_P1;PMS_P2;Temp;Humidity;BMP_temperature;BMP_pressure;BME280_temperature;BME280_humidity;BME280_pressure;Samples;Min_cycle;Max_cycle;Signal;HPM_P1;HPM_P2
2022/10/18 00:00:56;;;;;;;1.23;1.10;;;;;19.50;101439.00;;;;2062536;28;20218;-50
2022/10/18 00:01:56;;;;;;;1.20;1.10;;;;;19.50;101437.00;;;;2060565;28;20420;-51
2022/10/18 00:02:56;;;;;;;1.10;1.00;;;;;19.50;101440.00;;;;2062349;28;20229;-52
2022/10/18 00:03:57;;;;;;;1.07;0.97;;;;;19.50;101436.00;;;;2062652;28;20219;-51
2022/10/18 00:04:57;;;;;;;1.23;1.03;;;;;19.50;101434.00;;;;2062383;28;20249;-50
2022/10/18 00:05:57;;;;;;;1.50;1.17;;;;;19.50;101437.00;;;;2063158;28;20223;-52
2022/10/18 00:06:58;;;;;;;1.20;1.10;;;;;19.50;101432.00;;;;2062426;28;20211;-52
2022/10/18 00:07:58;;;;;;;1.10;1.00;;;;;19.50;101437.00;;;;2062055;28;20250;-51
2022/10/18 00:08:58;;;;;;;1.17;1.00;;;;;19.50;101440.00;;;;2062371;28;20223;-51
2022/10/18 00:09:59;;;;;;;1.23;1.10;;;;;19.50;101432.00;;;;2062654;28;20221;-50
2022/10/18 00:10:59;;;;;;;1.10;1.00;;;;;19.50;101435.00;;;;2062520;28;20211;-50
2022/10/18 00:11:59;;;;;;;1.40;0.93;;;;;19.50;101436.00;;;;2061613;28;20221;-51
2022/10/18 00:13:00;;;;;;;0.90;0.80;;;;;19.50;101435.00;;;;2066763;28;20218;-50
2022/10/18 00:14:00;;;;;;;1.20;1.10;;;;;19.50;101430.00;;;;2069390;28;20296;-50
2022/10/18 00:15:00;;;;;;;1.10;1.00;;;;;19.50;101441.00;;;;2063785;28;20246;-50
2022/10/18 00:16:02;;;;;;;1.10;1.00;;;;;19.50;101428.00;;;;2069258;28;20646;-51
2022/10/18 00:17:02;;;;;;;1.10;0.90;;;;;19.50;101435.00;;;;2069852;28;20222;-50
2022/10/18 00:18:03;;;;;;;1.37;1.27;;;;;19.50;101430.00;;;;2070264;28;20228;-50
2022/10/18 00:19:03;;;;;;;1.13;1.00;;;;;19.50;101435.00;;;;2070493;28;20253;-50
2022/10/18 00:20:04;;;;;;;1.10;1.00;;;;;19.50;101434.00;;;;2070554;28;20550;-52
2022/10/18 00:21:09;;;;;;;1.50;0.88;;;;;19.50;101432.00;;;;2070310;28;20572;-49
2022/10/18 00:22:09;;;;;;;1.20;0.90;;;;;19.50;101434.00;;;;2069671;28;20678;-52
2022/10/18 00:23:10;;;;;;;0.87;0.73;;;;;19.50;101442.00;;;;2067101;28;20218;-51
2022/10/18 00:24:11;;;;;;;1.00;0.90;;;;;19.50;101429.00;;;;2062363;28;20210;-50
2022/10/18 00:25:11;;;;;;;1.17;1.08;;;;;19.50;101435.00;;;;2062265;28;20210;-50
2022/10/18 00:26:20;;;;;;;1.10;0.90;;;;;19.50;101466.00;;;;2062198;28;20707;-51
2022/10/18 00:27:21;;;;;;;0.80;0.80;;;;;19.50;101434.00;;;;2066825;28;20686;-50
2022/10/18 00:28:22;;;;;;;1.10;1.00;;;;;19.50;101428.00;;;;2070283;28;20210;-51
2022/10/18 00:29:22;;;;;;;1.40;1.20;;;;;19.50;101429.00;;;;2070384;28;20215;-51
2022/10/18 00:30:23;;;;;;;1.10;1.00;;;;;19.50;101435.00;;;;2070360;28;20226;-51
2022/10/18 00:31:28;;;;;;;0.88;0.88;;;;;19.50;101429.00;;;;2062134;28;20207;-51
2022/10/18 00:32:28;;;;;;;0.90;0.80;;;;;19.50;101427.00;;;;2077085;28;20224;-51
2022/10/18 00:33:28;;;;;;;0.83;0.80;;;;;19.50;101429.00;;;;2076117;28;20283;-51
2022/10/18 00:34:28;;;;;;;1.40;0.93;;;;;19.50;101432.00;;;;2070163;28;20229;-52
2022/10/18 00:35:29;;;;;;;1.10;0.90;;;;;19.50;101429.00;;;;2070553;28;20214;-51
2022/10/18 00:36:31;;;;;;;1.10;0.97;;;;;19.60;101431.00;;;;2070425;28;20309;-50
2022/10/18 00:37:32;;;;;;;0.90;0.75;;;;;19.50;101425.00;;;;2070443;28;20574;-49
2022/10/18 00:38:32;;;;;;;1.20;0.97;;;;;19.20;101427.00;;;;2070408;28;20245;-50
2022/10/18 00:39:32;;;;;;;1.20;1.10;;;;;19.50;101420.00;;;;2070498;28;20511;-51
2022/10/18 00:40:33;;;;;;;1.30;1.20;;;;;19.50;101424.00;;;;2070571;28;20220;-51
2022/10/18 00:41:34;;;;;;;1.33;0.90;;;;;19.50;101427.00;;;;2067297;28;20215;-50
2022/10/18 00:42:35;;;;;;;1.40;1.30;;;;;19.50;101426.00;;;;2061196;28;20727;-51
2022/10/18 00:43:56;;;;;;;1.50;1.40;;;;;19.50;101414.00;;;;2062323;28;20218;-50
2022/10/18 00:45:17;;;;;;;1.00;0.90;;;;;19.50;101421.00;;;;2067061;28;20214;-50
2022/10/18 00:46:18;;;;;;;1.20;1.10;;;;;19.50;101416.00;;;;2071342;28;20299;-50
2022/10/18 00:47:18;;;;;;;1.07;0.97;;;;;19.50;101421.00;;;;2071939;28;20250;-51
2022/10/18 00:48:18;;;;;;;1.27;1.17;;;;;19.50;101424.00;;;;2072127;28;20210;-50
2022/10/18 00:49:32;;;;;;;1.10;1.00;;;;;19.50;101410.00;;;;2071378;28;20219;-51
2022/10/18 00:50:32;;;;;;;1.15;0.90;;;;;19.50;101414.00;;;;2071054;28;20249;-51
2022/10/18 00:51:47;;;;;;;0.80;0.80;;;;;19.50;101415.00;;;;2071063;28;20210;-52
2022/10/18 00:52:53;;;;;;;0.95;0.77;;;;;19.50;101416.00;;;;2061356;28;20697;-53
2022/10/18 00:53:53;;;;;;;1.02;0.80;;;;;19.50;101422.00;;;;2062728;28;20222;-51
2022/10/18 00:54:54;;;;;;;1.20;1.00;;;;;19.50;101413.00;;;;2054516;28;20270;-51
2022/10/18 00:55:54;;;;;;;1.03;0.93;;;;;19.50;101416.00;;;;2062761;28;20211;-50
2022/10/18 00:56:54;;;;;;;1.20;1.10;;;;;19.50;101414.00;;;;2058014;28;20909;-49
2022/10/18 00:57:55;;;;;;;1.30;1.20;;;;;19.50;101412.00;;;;2062431;28;20772;-50
2022/10/18 00:58:55;;;;;;;1.10;0.93;;;;;19.50;101425.00;;;;2070848;28;20700;-51
2022/10/18 00:59:55;;;;;;;0.73;0.70;;;;;19.60;101401.00;;;;2069712;28;20706;-49
2022/10/18 01:00:56;;;;;;;1.17;0.87;;;;;19.50;101409.00;;;;2072594;28;20875;-51
2022/10/18 01:01:56;;;;;;;1.10;1.00;;;;;19.50;101410.00;;;;2071285;28;20228;-50
2022/10/18 01:02:57;;;;;;;1.20;0.97;;;;;19.50;101391.00;;;;2065672;28;20223;-49
2022/10/18 01:03:57;;;;;;;1.20;1.10;;;;;19.50;101404.00;;;;2072030;28;20215;-49
2022/10/18 01:04:58;;;;;;;2.33;1.10;;;;;19.50;101405.00;;;;2071947;28;20210;-49
2022/10/18 01:05:58;;;;;;;1.20;1.03;;;;;19.50;101400.00;;;;2068510;28;20245;-51
2022/10/18 01:07:10;;;;;;;1.10;1.00;;;;;19.50;101407.00;;;;2063986;28;20219;-51
2022/10/18 01:08:32;;;;;;;1.10;0.90;;;;;19.60;101402.00;;;;2064389;28;20679;-51
2022/10/18 01:09:49;;;;;;;1.00;0.88;;;;;19.50;101412.00;;;;2063824;28;20210;-50
2022/10/18 01:11:12;;;;;;;1.00;0.90;;;;;19.60;101413.00;;;;2057972;28;20244;-56
2022/10/18 01:12:48;;;;;;;1.08;0.98;;;;;19.50;101407.00;;;;2058525;28;20215;-50
2022/10/18 01:14:41;;;;;;;1.00;0.90;;;;;19.50;101415.00;;;;2065665;28;20222;-51
2022/10/18 01:16:10;;;;;;;1.20;1.10;;;;;19.50;101407.00;;;;2061663;28;20740;-51
2022/10/18 01:17:26;;;;;;;1.20;0.95;;;;;19.50;101400.00;;;;2055517;28;20219;-49
2022/10/18 01:18:47;;;;;;;1.15;0.90;;;;;19.50;101403.00;;;;2049770;28;20215;-51
2022/10/18 01:20:15;;;;;;;1.05;0.90;;;;;19.50;101397.00;;;;2050145;28;20251;-51
2022/10/18 01:21:41;;;;;;;1.35;1.00;;;;;19.50;101384.00;;;;2064111;28;20214;-51
2022/10/18 01:23:07;;;;;;;1.02;0.85;;;;;19.50;101400.00;;;;2055109;28;20278;-51
2022/10/18 01:24:39;;;;;;;1.23;1.13;;;;;19.50;101398.00;;;;2050704;28;20282;-50
2022/10/18 01:25:54;;;;;;;1.10;1.00;;;;;19.50;101414.00;;;;2060031;28;20218;-51
2022/10/18 01:27:29;;;;;;;1.00;0.90;;;;;19.50;101390.00;;;;2054139;28;20233;-50
2022/10/18 01:28:51;;;;;;;1.10;0.90;;;;;19.50;101398.00;;;;2073123;28;20297;-51
2022/10/18 01:30:22;;;;;;;1.33;1.10;;;;;19.50;101399.00;;;;2077505;28;20218;-50
2022/10/18 01:31:33;;;;;;;1.33;1.23;;;;;19.50;101401.00;;;;2064130;28;20233;-53
2022/10/18 01:32:36;;;;;;;1.40;0.90;;;;;19.50;101405.00;;;;2071021;28;20552;-51
2022/10/18 01:33:38;;;;;;;1.30;1.20;;;;;19.50;101393.00;;;;2071511;28;20210;-51
2022/10/18 01:34:39;;;;;;;1.27;1.10;;;;;19.60;101396.00;;;;2063849;28;20222;-51
2022/10/18 01:35:43;;;;;;;3.90;0.90;;;;;19.50;101394.00;;;;2071979;28;20221;-51
2022/10/18 01:36:46;;;;;;;1.58;0.90;;;;;19.50;101398.00;;;;2061103;28;20843;-51
2022/10/18 01:37:46;;;;;;;1.67;1.00;;;;;19.50;101394.00;;;;2063839;28;20222;-51
2022/10/18 01:38:48;;;;;;;0.90;0.90;;;;;19.50;101390.00;;;;2064101;28;20215;-51
2022/10/18 01:39:50;;;;;;;1.20;1.10;;;;;19.50;101384.00;;;;2062478;28;20276;-51
2022/10/18 01:40:50;;;;;;;0.85;0.80;;;;;19.50;101392.00;;;;2062503;28;20245;-52
2022/10/18 01:41:50;;;;;;;1.00;0.80;;;;;19.50;101385.00;;;;2065060;28;21226;-51
2022/10/18 01:42:51;;;;;;;1.20;1.10;;;;;19.50;101385.00;;;;2061584;28;20246;-51
2022/10/18 01:43:55;;;;;;;1.00;0.90;;;;;19.50;101385.00;;;;2062013;28;20698;-52
2022/10/18 01:44:55;;;;;;;0.93;0.82;;;;;19.50;101387.00;;;;2062110;28;20453;-51
2022/10/18 01:45:55;;;;;;;1.10;1.00;;;;;19.50;101380.00;;;;2062779;28;20714;-52
2022/10/18 01:46:56;;;;;;;1.90;1.00;;;;;19.50;101381.00;;;;2062766;28;20222;-50
2022/10/18 01:47:56;;;;;;;1.00;0.90;;;;;19.50;101379.00;;;;2062275;28;20229;-51
2022/10/18 01:48:56;;;;;;;1.10;1.00;;;;;19.50;101374.00;;;;2056410;28;20219;-51
2022/10/18 01:50:02;;;;;;;1.10;0.90;;;;;19.50;101375.00;;;;2062577;28;20270;-51
2022/10/18 01:51:03;;;;;;;1.20;1.10;;;;;19.50;101380.00;;;;2063058;28;20229;-51
2022/10/18 01:52:03;;;;;;;1.00;0.90;;;;;19.50;101382.00;;;;2070264;28;20397;-50
2022/10/18 01:53:04;;;;;;;1.00;0.83;;;;;19.50;101386.00;;;;2071386;28;20779;-50
2022/10/18 01:54:04;;;;;;;0.97;0.87;;;;;19.50;101391.00;;;;2071239;28;20220;-50
2022/10/18 01:55:05;;;;;;;1.07;0.77;;;;;19.50;101379.00;;;;2071509;28;20221;-50
2022/10/18 01:56:27;;;;;;;1.00;0.90;;;;;19.50;101394.00;;;;2062432;28;20243;-51
2022/10/18 01:58:04;;;;;;;0.95;0.82;;;;;19.50;101394.00;;;;2064376;28;20659;-51
2022/10/18 01:59:28;;;;;;;1.10;1.00;;;;;19.60;101405.00;;;;2070257;28;20242;-50
2022/10/18 02:00:34;;;;;;;1.23;0.90;;;;;19.60;101398.00;;;;2070520;28;20218;-51
2022/10/18 02:02:05;;;;;;;1.00;0.90;;;;;19.50;101396.00;;;;2070641;28;20214;-50
2022/10/18 02:03:17;;;;;;;0.80;0.80;;;;;19.50;101404.00;;;;2069803;28;20249;-51
2022/10/18 02:04:47;;;;;;;1.10;1.00;;;;;19.50;101393.00;;;;2064703;28;20250;-51
2022/10/18 02:06:03;;;;;;;0.82;0.75;;;;;19.50;101401.00;;;;2066045;28;20214;-51
2022/10/18 02:07:26;;;;;;;0.90;0.80;;;;;19.50;101398.00;;;;2053197;28;20236;-51
2022/10/18 02:08:33;;;;;;;1.00;0.90;;;;;19.50;101391.00;;;;2066218;28;20698;-51
2022/10/18 02:09:40;;;;;;;1.25;0.93;;;;;19.50;101398.00;;;;2071392;28;20355;-52
2022/10/18 02:10:48;;;;;;;1.13;1.02;;;;;19.50;101384.00;;;;2070403;28;20218;-50
2022/10/18 02:11:49;;;;;;;2.05;1.92;;;;;19.60;101383.00;;;;2068798;28;20246;-51
2022/10/18 02:12:49;;;;;;;1.10;0.77;;;;;19.60;101376.00;;;;2062254;28;20305;-50
2022/10/18 02:13:54;;;;;;;1.00;0.80;;;;;19.50;101386.00;;;;2054534;28;20223;-51
2022/10/18 02:14:55;;;;;;;1.30;1.20;;;;;19.50;101386.00;;;;2062642;28;20211;-51
2022/10/18 02:15:58;;;;;;;1.00;0.90;;;;;19.50;101395.00;;;;2062217;28;20266;-50
2022/10/18 02:16:59;;;;;;;0.93;0.82;;;;;19.50;101391.00;;;;2039019;28;20721;-50
2022/10/18 02:17:59;;;;;;;0.90;0.83;;;;;19.50;101392.00;;;;2046772;28;20224;-50
2022/10/18 02:19:03;;;;;;;1.10;1.00;;;;;19.50;101390.00;;;;2058351;28;20230;-53
2022/10/18 02:20:03;;;;;;;1.80;1.10;;;;;19.50;101394.00;;;;2062708;28;20223;-50
2022/10/18 02:21:04;;;;;;;1.17;1.00;;;;;19.60;101379.00;;;;2070397;28;20305;-50
2022/10/18 02:22:05;;;;;;;1.30;1.00;;;;;19.60;101378.00;;;;2061491;28;21008;-51
2022/10/18 02:23:06;;;;;;;1.65;0.88;;;;;19.50;101390.00;;;;2062453;28;21113;-50
2022/10/18 02:24:06;;;;;;;1.05;0.80;;;;;19.50;101391.00;;;;2070444;28;20226;-51
2022/10/18 02:25:09;;;;;;;1.00;0.90;;;;;19.60;101373.00;;;;2071024;28;20301;-51
2022/10/18 02:26:09;;;;;;;0.98;0.75;;;;;19.50;101386.00;;;;2069402;28;20256;-50
2022/10/18 02:27:09;;;;;;;1.00;0.90;;;;;19.50;101391.00;;;;2069776;28;20733;-51
2022/10/18 02:28:10;;;;;;;1.17;0.90;;;;;19.50;101384.00;;;;2062493;28;20532;-50
2022/10/18 02:29:10;;;;;;;1.57;0.80;;;;;19.50;101386.00;;;;2062259;28;20576;-50
2022/10/18 02:30:11;;;;;;;1.13;1.03;;;;;19.50;101382.00;;;;2062162;28;20717;-51
2022/10/18 02:31:19;;;;;;;1.00;0.90;;;;;19.50;101371.00;;;;2045972;28;20220;-50
2022/10/18 02:32:31;;;;;;;1.10;1.00;;;;;19.50;101382.00;;;;2047254;28;20270;-50
2022/10/18 02:34:03;;;;;;;0.80;0.70;;;;;19.50;101382.00;;;;2052039;28;20687;-51
2022/10/18 02:35:05;;;;;;;1.08;0.98;;;;;19.50;101381.00;;;;2069084;28;20222;-51
2022/10/18 02:36:10;;;;;;;1.17;1.08;;;;;19.60;101381.00;;;;2062433;28;20234;-51
2022/10/18 02:37:11;;;;;;;1.35;1.10;;;;;19.50;101382.00;;;;2070631;28;20722;-51
2022/10/18 02:38:11;;;;;;;1.00;0.90;;;;;19.50;101380.00;;;;2070315;28;20214;-51
2022/10/18 02:39:13;;;;;;;1.17;1.07;;;;;19.50;101390.00;;;;2070504;28;20280;-51
2022/10/18 02:40:14;;;;;;;1.33;0.98;;;;;19.50;101386.00;;;;2051114;28;20220;-51
2022/10/18 02:41:24;;;;;;;0.80;0.80;;;;;19.50;101384.00;;;;2056602;28;20210;-49
2022/10/18 02:42:24;;;;;;;1.10;1.00;;;;;19.50;101386.00;;;;2061699;28;20207;-50
2022/10/18 02:43:24;;;;;;;1.10;1.00;;;;;19.50;101385.00;;;;2054276;28;20216;-51
2022/10/18 02:44:25;;;;;;;1.07;0.93;;;;;19.50;101386.00;;;;2065083;28;20226;-51
2022/10/18 02:45:25;;;;;;;1.00;0.90;;;;;19.50;101377.00;;;;2071161;28;20218;-52
2022/10/18 02:46:25;;;;;;;1.27;1.00;;;;;19.50;101389.00;;;;2070422;28;20214;-51
2022/10/18 02:47:26;;;;;;;0.93;0.83;;;;;19.50;101385.00;;;;2070633;28;20256;-51
2022/10/18 02:48:26;;;;;;;0.97;0.80;;;;;19.50;101396.00;;;;2065253;28;20262;-52
2022/10/18 02:49:26;;;;;;;1.17;0.90;;;;;19.60;101394.00;;;;2062108;28;20218;-51
2022/10/18 02:50:27;;;;;;;0.87;0.80;;;;;19.50;101397.00;;;;2062296;28;20326;-52
2022/10/18 02:51:27;;;;;;;1.20;1.03;;;;;19.60;101391.00;;;;2063998;28;20218;-52
2022/10/18 02:52:27;;;;;;;1.00;0.80;;;;;19.60;101396.00;;;;2070109;28;20217;-52
2022/10/18 02:53:28;;;;;;;1.20;1.10;;;;;19.50;101391.00;;;;2070977;28;20214;-52
2022/10/18 02:54:28;;;;;;;1.37;1.23;;;;;19.50;101394.00;;;;2070418;28;20222;-51
2022/10/18 02:55:28;;;;;;;1.20;1.10;;;;;19.60;101388.00;;;;2071065;28;20222;-51
2022/10/18 02:56:29;;;;;;;1.27;1.10;;;;;19.50;101389.00;;;;2071134;28;20222;-50
2022/10/18 02:57:29;;;;;;;1.43;1.20;;;;;19.50;101385.00;;;;2071394;28;20218;-50
2022/10/18 02:58:29;;;;;;;1.13;0.90;;;;;19.50;101390.00;;;;2070985;28;20214;-50
2022/10/18 02:59:30;;;;;;;1.10;0.90;;;;;19.50;101390.00;;;;2070884;28;20693;-51
2022/10/18 03:00:30;;;;;;;1.50;1.00;;;;;19.50;101383.00;;;;2069976;28;20694;-52
2022/10/18 03:01:31;;;;;;;1.37;0.80;;;;;19.50;101389.00;;;;2070721;28;20637;-51
2022/10/18 03:02:32;;;;;;;1.35;1.20;;;;;19.50;101391.00;;;;2070230;28;20233;-49
2022/10/18 03:03:32;;;;;;;0.90;0.80;;;;;19.50;101391.00;;;;2069380;28;20230;-51
2022/10/18 03:04:32;;;;;;;1.30;0.93;;;;;19.50;101401.00;;;;2069663;28;20678;-50
2022/10/18 03:05:33;;;;;;;0.80;0.80;;;;;19.60;101392.00;;;;2055656;28;20711;-50
2022/10/18 03:06:33;;;;;;;1.10;1.00;;;;;19.60;101397.00;;;;2061678;28;20218;-50
2022/10/18 03:07:33;;;;;;;0.73;0.70;;;;;19.60;101396.00;;;;2057527;28;20230;-51
2022/10/18 03:08:34;;;;;;;1.33;0.90;;;;;19.50;101386.00;;;;2061300;28;20227;-49
2022/10/18 03:09:35;;;;;;;1.20;1.10;;;;;19.50;101394.00;;;;2068265;28;20228;-50
2022/10/18 03:10:35;;;;;;;1.23;0.87;;;;;19.60;101392.00;;;;2070094;28;20729;-52
2022/10/18 03:11:35;;;;;;;0.80;0.77;;;;;19.50;101396.00;;;;2070269;28;21078;-50
2022/10/18 03:12:36;;;;;;;1.10;1.00;;;;;19.60;101400.00;;;;2068925;28;20702;-51
2022/10/18 03:13:36;;;;;;;0.83;0.80;;;;;19.50;101396.00;;;;2062165;28;20713;-51
2022/10/18 03:14:36;;;;;;;1.70;1.10;;;;;19.50;101390.00;;;;2062610;28;20306;-51
2022/10/18 03:15:37;;;;;;;1.10;1.00;;;;;19.50;101392.00;;;;2061911;28;20730;-51
2022/10/18 03:16:37;;;;;;;0.90;0.80;;;;;19.50;101401.00;;;;2063894;28;20273;-51
2022/10/18 03:17:37;;;;;;;1.20;0.93;;;;;19.50;101399.00;;;;2070812;28;20221;-51
2022/10/18 03:18:38;;;;;;;1.10;1.00;;;;;19.50;101399.00;;;;2070030;28;20218;-55
2022/10/18 03:19:38;;;;;;;1.00;0.80;;;;;19.50;101399.00;;;;2070595;28;20256;-54
2022/10/18 03:20:38;;;;;;;1.07;0.90;;;;;19.50;101399.00;;;;2067117;28;20214;-52
2022/10/18 03:21:39;;;;;;;0.80;0.80;;;;;19.60;101398.00;;;;2070661;28;20245;-51
2022/10/18 03:22:39;;;;;;;1.10;1.00;;;;;19.50;101395.00;;;;2070043;28;20218;-51
2022/10/18 03:23:41;;;;;;;1.20;1.00;;;;;19.50;101400.00;;;;2070723;28;20203;-52
2022/10/18 03:24:41;;;;;;;1.05;0.95;;;;;19.50;101398.00;;;;2070644;28;20206;-51
2022/10/18 03:25:41;;;;;;;1.20;1.10;;;;;19.50;101395.00;;;;2065556;28;20209;-50
2022/10/18 03:26:42;;;;;;;0.93;0.80;;;;;19.50;101400.00;;;;2062720;28;20210;-51
2022/10/18 03:27:42;;;;;;;1.20;1.10;;;;;19.50;101404.00;;;;2062837;28;20221;-50
2022/10/18 03:28:42;;;;;;;1.10;1.00;;;;;19.50;101401.00;;;;2062468;28;20247;-51
2022/10/18 03:29:42;;;;;;;1.10;0.90;;;;;19.50;101403.00;;;;2062849;28;20269;-51
2022/10/18 03:30:43;;;;;;;0.90;0.77;;;;;19.50;101400.00;;;;2062928;28;20292;-51
2022/10/18 03:31:43;;;;;;;1.10;1.00;;;;;19.50;101401.00;;;;2062154;28;20210;-50
2022/10/18 03:32:43;;;;;;;0.90;0.70;;;;;19.50;101400.00;;;;2061590;28;20216;-51
2022/10/18 03:33:44;;;;;;;1.73;1.00;;;;;19.50;101392.00;;;;2061721;28;20245;-51
2022/10/18 03:34:45;;;;;;;1.00;0.90;;;;;19.50;101398.00;;;;2062460;28;20207;-50
2022/10/18 03:35:45;;;;;;;1.20;1.10;;;;;19.50;101390.00;;;;2062770;28;20215;-50
2022/10/18 03:36:45;;;;;;;1.00;0.90;;;;;19.60;101401.00;;;;2066299;28;20220;-51
2022/10/18 03:37:46;;;;;;;1.70;1.20;;;;;19.50;101399.00;;;;2065174;28;20235;-51
2022/10/18 03:38:46;;;;;;;1.33;0.97;;;;;19.60;101399.00;;;;2062737;28;20246;-52
2022/10/18 03:39:46;;;;;;;1.10;0.80;;;;;19.60;101398.00;;;;2062459;28;20215;-52
2022/10/18 03:40:46;;;;;;;1.10;0.97;;;;;19.50;101396.00;;;;2062802;28;20699;-52
2022/10/18 03:41:47;;;;;;;0.80;0.77;;;;;19.50;101430.00;;;;2061991;28;20770;-50
2022/10/18 03:42:47;;;;;;;1.10;0.80;;;;;19.20;101404.00;;;;2062363;28;20719;-51
2022/10/18 03:43:48;;;;;;;1.20;1.00;;;;;19.50;101404.00;;;;2062285;28;20219;-51
2022/10/18 03:44:48;;;;;;;1.00;0.90;;;;;19.50;101413.00;;;;2062661;28;20253;-51
2022/10/18 03:45:48;;;;;;;1.00;0.90;;;;;19.50;101402.00;;;;2062685;28;20219;-51
2022/10/18 03:46:49;;;;;;;1.03;0.90;;;;;19.50;101397.00;;;;2067360;28;20213;-51
2022/10/18 03:47:49;;;;;;;1.10;0.90;;;;;19.50;101395.00;;;;2068565;28;20624;-51
2022/10/18 03:48:49;;;;;;;1.07;0.97;;;;;19.50;101396.00;;;;2062700;28;20679;-51
2022/10/18 03:49:50;;;;;;;1.30;1.07;;;;;19.60;101401.00;;;;2062696;28;20645;-50
2022/10/18 03:50:50;;;;;;;0.80;0.80;;;;;19.60;101401.00;;;;2062372;28;20215;-51
2022/10/18 03:51:50;;;;;;;1.23;1.00;;;;;19.60;101395.00;;;;2061345;28;20733;-51
2022/10/18 03:52:52;;;;;;;1.00;0.90;;;;;19.60;101394.00;;;;2062819;28;20211;-51
2022/10/18 03:53:53;;;;;;;1.13;0.77;;;;;19.50;101395.00;;;;2062217;28;20222;-50
2022/10/18 03:54:53;;;;;;;0.80;0.80;;;;;19.60;101400.00;;;;2067212;28;20309;-50
2022/10/18 03:55:53;;;;;;;0.83;0.67;;;;;19.60;101396.00;;;;2068994;28;20221;-51
2022/10/18 03:56:54;;;;;;;0.97;0.87;;;;;19.50;101399.00;;;;2062539;28;20269;-51
2022/10/18 03:57:54;;;;;;;0.83;0.83;;;;;19.50;101395.00;;;;2062395;28;20215;-51
2022/10/18 03:58:55;;;;;;;0.90;0.70;;;;;19.50;101398.00;;;;2062976;28;20257;-50
2022/10/18 03:59:56;;;;;;;1.45;0.93;;;;;19.50;101395.00;;;;2070748;28;20210;-50
2022/10/18 04:00:56;;;;;;;1.17;0.80;;;;;19.50;101394.00;;;;2067263;28;20210;-50
2022/10/18 04:01:56;;;;;;;0.90;0.80;;;;;19.60;101397.00;;;;2070078;28;20241;-50
2022/10/18 04:02:57;;;;;;;1.23;0.93;;;;;19.50;101395.00;;;;2062257;28;20297;-50
2022/10/18 04:03:57;;;;;;;1.27;0.90;;;;;19.60;101402.00;;;;2063043;28;20222;-51
2022/10/18 04:04:57;;;;;;;1.00;0.90;;;;;19.50;101403.00;;;;2067872;28;20264;-51
2022/10/18 04:05:59;;;;;;;1.00;0.90;;;;;19.50;101397.00;;;;2062085;28;20247;-51
2022/10/18 04:06:59;;;;;;;0.93;0.85;;;;;19.50;101395.00;;;;2062256;28;20237;-51
2022/10/18 04:08:00;;;;;;;1.53;0.80;;;;;19.50;101397.00;;;;2067926;28;20353;-50
2022/10/18 04:09:00;;;;;;;1.00;0.90;;;;;19.50;101393.00;;;;2067943;28;20349;-50
2022/10/18 04:10:00;;;;;;;1.13;0.90;;;;;19.50;101398.00;;;;2065079;28;20723;-51
2022/10/18 04:11:07;;;;;;;0.83;0.73;;;;;19.50;101399.00;;;;2070067;28;20757;-50
2022/10/18 04:12:07;;;;;;;1.10;0.90;;;;;19.50;101393.00;;;;2063706;28;20214;-50
2022/10/18 04:13:07;;;;;;;1.20;1.00;;;;;19.50;101396.00;;;;2061804;28;20223;-50
2022/10/18 04:14:08;;;;;;;1.40;0.83;;;;;19.50;101399.00;;;;2060860;28;20230;-51
2022/10/18 04:15:09;;;;;;;1.03;0.90;;;;;19.60;101401.00;;;;2061228;28;20253;-51
2022/10/18 04:16:09;;;;;;;1.05;0.95;;;;;19.60;101399.00;;;;2062375;28;21218;-51
2022/10/18 04:17:10;;;;;;;1.00;0.77;;;;;19.50;101403.00;;;;2062282;28;20380;-51
2022/10/18 04:18:10;;;;;;;1.00;0.80;;;;;19.60;101396.00;;;;2061947;28;20258;-51
2022/10/18 04:19:10;;;;;;;1.00;0.90;;;;;19.50;101301.00;;;;2059364;28;20257;-51
2022/10/18 04:20:11;;;;;;;1.00;0.83;;;;;19.50;101406.00;;;;2067507;28;20224;-51
2022/10/18 04:21:11;;;;;;;1.03;0.93;;;;;19.60;101406.00;;;;2070286;28;20221;-51
2022/10/18 04:22:11;;;;;;;1.33;1.00;;;;;19.50;101405.00;;;;2069806;28;20241;-51
2022/10/18 04:23:12;;;;;;;1.07;0.97;;;;;19.50;101404.00;;;;2070559;28;20214;-50
2022/10/18 04:24:12;;;;;;;1.70;1.10;;;;;19.60;101404.00;;;;2065510;28;20667;-51
2022/10/18 04:25:12;;;;;;;1.57;1.10;;;;;19.60;101403.00;;;;2062490;28;20668;-50
2022/10/18 04:26:13;;;;;;;0.97;0.80;;;;;19.50;101397.00;;;;2062006;28;20671;-51
2022/10/18 04:27:13;;;;;;;0.90;0.80;;;;;19.50;101403.00;;;;2061936;28;20214;-51
2022/10/18 04:28:13;;;;;;;0.80;0.60;;;;;19.60;101402.00;;;;2067109;28;20280;-51
2022/10/18 04:29:14;;;;;;;1.10;0.90;;;;;19.60;101405.00;;;;2070555;28;20238;-51
2022/10/18 04:30:14;;;;;;;1.10;1.00;;;;;19.50;101404.00;;;;2070720;28;20823;-51
2022/10/18 04:31:14;;;;;;;1.00;0.90;;;;;19.60;101409.00;;;;2070225;28;20214;-51
2022/10/18 04:32:15;;;;;;;1.00;0.80;;;;;19.60;101401.00;;;;2069516;28;20214;-50
2022/10/18 04:33:15;;;;;;;1.30;0.80;;;;;19.50;101396.00;;;;2070621;28;20229;-50
2022/10/18 04:34:15;;;;;;;1.17;0.80;;;;;19.60;101398.00;;;;2070451;28;20210;-51
2022/10/18 04:35:16;;;;;;;0.77;0.77;;;;;19.60;101407.00;;;;2066837;28;20226;-51
2022/10/18 04:36:16;;;;;;;1.00;0.90;;;;;19.60;101403.00;;;;2061777;28;20710;-50
2022/10/18 04:37:16;;;;;;;1.20;0.87;;;;;19.60;101400.00;;;;2061532;28;20869;-50
2022/10/18 04:38:17;;;;;;;0.90;0.80;;;;;19.60;101413.00;;;;2061630;28;20681;-50
2022/10/18 04:39:17;;;;;;;1.00;0.90;;;;;19.50;101413.00;;;;2053084;28;20614;-51
2022/10/18 04:40:18;;;;;;;1.07;0.97;;;;;19.50;101402.00;;;;2069104;28;20329;-50
2022/10/18 04:41:19;;;;;;;1.20;0.90;;;;;19.60;101403.00;;;;2070394;28;20246;-51
2022/10/18 04:42:20;;;;;;;1.57;1.00;;;;;19.50;101403.00;;;;2061817;28;20207;-51
2022/10/18 04:43:20;;;;;;;0.90;0.80;;;;;19.50;101407.00;;;;2061930;28;20218;-54
2022/10/18 04:44:20;;;;;;;1.10;0.90;;;;;19.60;101403.00;;;;2062231;28;20289;-52
2022/10/18 04:45:21;;;;;;;1.00;0.90;;;;;19.50;101406.00;;;;2070276;28;20272;-53
2022/10/18 04:46:21;;;;;;;0.77;0.73;;;;;19.50;101405.00;;;;2070267;28;20214;-51
2022/10/18 04:47:21;;;;;;;1.13;0.90;;;;;19.50;101413.00;;;;2070237;28;20230;-52
2022/10/18 04:48:22;;;;;;;1.00;0.90;;;;;19.50;101405.00;;;;2062997;28;20213;-52
2022/10/18 04:49:22;;;;;;;1.00;0.90;;;;;19.50;101405.00;;;;2062381;28;20562;-51
2022/10/18 04:50:22;;;;;;;0.97;0.80;;;;;19.50;101411.00;;;;2062038;28;20707;-51
2022/10/18 04:51:23;;;;;;;0.93;0.83;;;;;19.60;101401.00;;;;2062495;28;20667;-50
2022/10/18 04:52:23;;;;;;;1.13;0.80;;;;;19.60;101406.00;;;;2064826;28;20674;-51
2022/10/18 04:53:23;;;;;;;0.80;0.70;;;;;19.60;101404.00;;;;2070146;28;20683;-51
2022/10/18 04:54:24;;;;;;;1.03;0.90;;;;;19.50;101410.00;;;;2070043;28;20689;-51
2022/10/18 04:55:24;;;;;;;0.90;0.73;;;;;19.60;101306.00;;;;2069506;28;20312;-51
2022/10/18 04:56:24;;;;;;;1.40;0.90;;;;;19.50;101409.00;;;;2069340;28;20288;-50
2022/10/18 04:57:25;;;;;;;1.20;1.10;;;;;19.50;101401.00;;;;2070085;28;20682;-51
2022/10/18 04:58:25;;;;;;;1.10;1.00;;;;;19.50;101407.00;;;;2069615;28;20601;-51
2022/10/18 04:59:25;;;;;;;1.00;0.90;;;;;19.60;101401.00;;;;2070231;28;20662;-50
2022/10/18 05:00:26;;;;;;;1.27;0.90;;;;;19.50;101404.00;;;;2070311;28;20290;-50
2022/10/18 05:01:26;;;;;;;1.10;0.80;;;;;19.50;101392.00;;;;2070437;28;20229;-50
2022/10/18 05:02:26;;;;;;;0.93;0.83;;;;;19.50;101397.00;;;;2069583;28;20233;-50
2022/10/18 05:03:27;;;;;;;1.10;0.90;;;;;19.50;101401.00;;;;2068232;28;20272;-50
2022/10/18 05:04:27;;;;;;;1.13;0.90;;;;;19.50;101406.00;;;;2061552;28;20223;-50
2022/10/18 05:05:27;;;;;;;1.00;0.90;;;;;19.50;101407.00;;;;2065235;28;20253;-50
2022/10/18 05:06:27;;;;;;;1.00;0.90;;;;;19.50;101407.00;;;;2063072;28;20215;-51
2022/10/18 05:07:28;;;;;;;0.80;0.70;;;;;19.50;101410.00;;;;2065009;28;20223;-51
2022/10/18 05:08:28;;;;;;;1.63;1.20;;;;;19.50;101409.00;;;;2065073;28;20219;-51
2022/10/18 05:09:29;;;;;;;0.90;0.80;;;;;19.60;101444.00;;;;2070179;28;20221;-50
2022/10/18 05:10:29;;;;;;;1.10;0.90;;;;;19.60;101420.00;;;;2070511;28;20717;-51
2022/10/18 05:11:29;;;;;;;1.07;0.97;;;;;19.60;101411.00;;;;2070422;28;20678;-51
2022/10/18 05:12:30;;;;;;;1.13;0.97;;;;;19.50;101403.00;;;;2067327;28;20253;-50
2022/10/18 05:13:30;;;;;;;0.90;0.80;;;;;19.50;101405.00;;;;2065146;28;20230;-50